createdAt,value
2022-11-21T00:01:36.842Z,23.55
2022-11-21T00:04:06.194Z,19.75
2022-11-21T00:06:35.108Z,18.85
2022-11-21T00:09:05.355Z,26.02
2022-11-21T00:11:34.282Z,25.40
2022-11-21T00:14:03.270Z,18.88
2022-11-21T00:16:32.149Z,17.70
2022-11-21T00:19:02.085Z,17.77
2022-11-21T00:21:31.044Z,18.05
2022-11-21T00:24:00.079Z,19.98
2022-11-21T00:26:30.346Z,20.90
2022-11-21T00:28:59.239Z,18.52
2022-11-21T00:31:28.150Z,20.55
2022-11-21T00:33:57.026Z,21.02
2022-11-21T00:36:25.894Z,20.90
2022-11-21T00:38:54.753Z,22.65
2022-11-21T00:41:23.614Z,21.58
2022-11-21T00:43:53.905Z,18.83
2022-11-21T00:46:22.975Z,20.55
2022-11-21T00:48:51.849Z,18.20
2022-11-21T00:51:20.693Z,24.70
2022-11-21T00:53:49.576Z,18.98
2022-11-21T00:56:18.458Z,18.58
2022-11-21T00:58:47.362Z,17.85
2022-11-21T01:01:18.234Z,12.65
2022-11-21T01:03:47.409Z,14.70
2022-11-21T01:06:17.401Z,15.52
2022-11-21T01:08:46.768Z,16.30
2022-11-21T01:11:18.438Z,19.33
2022-11-21T01:13:48.542Z,18.15
2022-11-21T01:16:20.706Z,11.98
2022-11-21T01:18:51.505Z,14.05
2022-11-21T01:21:22.175Z,17.70
2022-11-21T01:23:51.758Z,14.32
2022-11-21T01:26:22.690Z,13.85
2022-11-21T01:28:52.330Z,10.70
2022-11-21T01:31:24.449Z,16.83
2022-11-21T01:33:53.818Z,15.10
2022-11-21T01:36:24.377Z,18.60
2022-11-21T01:38:54.803Z,17.65
2022-11-21T01:41:26.941Z,13.50
2022-11-21T01:43:55.857Z,17.98
2022-11-21T01:46:26.603Z,10.45
2022-11-21T01:49:01.407Z,14.00
2022-11-21T01:51:34.267Z,12.93
2022-11-21T01:54:07.862Z,12.02
2022-11-21T01:56:41.473Z,10.82
2022-11-21T01:59:13.880Z,13.85
2022-11-21T02:01:45.349Z,12.63
2022-11-21T02:04:14.379Z,9.80
2022-11-21T02:06:43.725Z,10.13
2022-11-21T02:09:13.258Z,11.30
2022-11-21T02:11:46.399Z,13.45
2022-11-21T02:14:15.329Z,15.93
2022-11-21T02:16:46.036Z,11.30
2022-11-21T02:19:21.282Z,11.40
2022-11-21T02:21:56.963Z,15.98
2022-11-21T02:24:31.556Z,14.77
2022-11-21T02:27:02.345Z,11.05
2022-11-21T02:29:31.973Z,11.88
2022-11-21T02:32:05.396Z,9.63
2022-11-21T02:34:34.296Z,15.77
2022-11-21T02:37:03.836Z,13.82
2022-11-21T02:39:37.236Z,13.98
2022-11-21T02:42:13.946Z,9.23
2022-11-21T02:44:50.507Z,14.02
2022-11-21T02:47:19.588Z,12.68
2022-11-21T02:49:56.750Z,19.63
2022-11-21T02:52:25.641Z,12.10
2022-11-21T02:54:54.563Z,16.85
2022-11-21T02:57:25.033Z,18.30
2022-11-21T02:59:54.086Z,18.52
2022-11-21T03:02:23.022Z,19.23
2022-11-21T03:04:52.315Z,12.48
2022-11-21T03:07:21.465Z,15.60
2022-11-21T03:09:50.414Z,20.85
2022-11-21T03:12:19.305Z,10.73
2022-11-21T03:14:49.640Z,17.98
2022-11-21T03:17:18.575Z,18.08
2022-11-21T03:19:47.439Z,15.35
2022-11-21T03:22:17.337Z,16.92
2022-11-21T03:24:46.252Z,17.85
2022-11-21T03:27:15.197Z,13.55
2022-11-21T03:29:44.587Z,17.92
2022-11-21T03:32:14.937Z,13.50
2022-11-21T03:34:43.890Z,19.80
2022-11-21T03:37:12.832Z,17.45
2022-11-21T03:39:41.848Z,21.08
2022-11-21T03:42:10.873Z,19.95
2022-11-21T03:44:39.934Z,17.38
2022-11-21T03:47:08.876Z,13.32
2022-11-21T03:49:39.187Z,21.13
2022-11-21T03:52:08.112Z,17.83
2022-11-21T03:54:36.978Z,20.95
2022-11-21T03:57:05.890Z,22.13
2022-11-21T03:59:34.787Z,19.58
2022-11-21T04:02:03.877Z,18.83
2022-11-21T04:04:32.820Z,18.02
2022-11-21T04:07:03.284Z,17.08
2022-11-21T04:09:32.245Z,18.75
2022-11-21T04:12:06.355Z,17.02
2022-11-21T04:17:05.117Z,18.20
2022-11-21T04:19:33.998Z,20.67
2022-11-21T04:22:04.311Z,19.33
2022-11-21T04:24:33.290Z,18.90
2022-11-21T04:27:02.214Z,18.80
2022-11-21T04:29:31.221Z,19.50
2022-11-21T04:32:00.198Z,15.48
2022-11-21T04:34:29.490Z,16.30
2022-11-21T04:36:58.795Z,20.65
2022-11-21T04:39:29.107Z,18.20
2022-11-21T04:41:58.017Z,22.55
2022-11-21T04:44:28.687Z,21.30
2022-11-21T04:47:02.316Z,20.10
2022-11-21T04:49:33.912Z,18.55
2022-11-21T04:52:02.972Z,15.38
2022-11-21T04:54:33.930Z,19.25
2022-11-21T04:57:03.088Z,15.25
2022-11-21T04:59:32.684Z,16.70
2022-11-21T05:02:01.677Z,17.30
2022-11-21T05:04:30.860Z,19.58
2022-11-21T05:06:59.928Z,19.85
2022-11-21T05:09:28.867Z,17.17
2022-11-21T05:12:16.505Z,13.10
2022-11-21T05:14:45.397Z,16.30
2022-11-21T05:17:14.441Z,16.85
2022-11-21T05:19:43.314Z,13.75
2022-11-21T05:22:12.413Z,16.70
2022-11-21T05:24:41.432Z,23.00
2022-11-21T05:27:11.766Z,18.33
2022-11-21T05:29:40.752Z,18.63
2022-11-21T05:32:09.831Z,16.13
2022-11-21T05:34:39.058Z,17.20
2022-11-21T05:37:08.084Z,14.20
2022-11-21T05:39:36.977Z,10.15
2022-11-21T05:42:06.112Z,22.30
2022-11-21T05:44:35.402Z,15.20
2022-11-21T05:47:04.344Z,20.20
2022-11-21T05:49:33.288Z,14.30
2022-11-21T05:52:02.432Z,18.10
2022-11-21T05:54:31.395Z,17.83
2022-11-21T05:57:00.330Z,16.90
2022-11-21T05:59:29.317Z,20.80
2022-11-21T06:02:16.976Z,13.63
2022-11-21T06:04:45.937Z,18.38
2022-11-21T06:07:14.858Z,17.95
2022-11-21T06:09:44.278Z,18.55
2022-11-21T06:12:13.211Z,14.65
2022-11-21T06:14:42.223Z,20.55
2022-11-21T06:17:13.290Z,17.02
2022-11-21T06:19:42.313Z,17.25
2022-11-21T06:22:11.206Z,23.17
2022-11-21T06:24:40.150Z,19.15
2022-11-21T06:27:09.142Z,20.77
2022-11-21T06:29:38.269Z,21.17
2022-11-21T06:32:07.158Z,21.27
2022-11-21T06:34:37.480Z,20.02
2022-11-21T06:37:06.700Z,16.33
2022-11-21T06:39:35.900Z,19.08
2022-11-21T06:42:04.906Z,22.92
2022-11-21T06:44:33.879Z,20.42
2022-11-21T06:47:02.850Z,18.33
2022-11-21T06:49:31.816Z,22.38
2022-11-21T06:52:02.101Z,18.33
2022-11-21T06:54:31.247Z,22.67
2022-11-21T06:57:00.436Z,17.38
2022-11-21T06:59:29.450Z,25.48
2022-11-21T07:01:58.370Z,21.77
2022-11-21T07:04:27.684Z,19.70
2022-11-21T07:06:56.917Z,17.30
2022-11-21T07:09:34.440Z,19.50
2022-11-21T07:12:17.657Z,15.93
2022-11-21T07:14:46.598Z,19.95
2022-11-21T07:17:16.083Z,16.42
2022-11-21T07:19:45.059Z,15.10
2022-11-21T07:22:13.956Z,18.05
2022-11-21T07:24:44.272Z,14.70
2022-11-21T07:27:13.201Z,18.90
2022-11-21T07:29:42.145Z,13.20
2022-11-21T07:32:11.077Z,20.67
2022-11-21T07:34:40.219Z,18.63
2022-11-21T07:37:09.291Z,16.90
2022-11-21T07:39:38.446Z,15.52
2022-11-21T07:42:08.803Z,17.65
2022-11-21T07:44:38.756Z,20.45
2022-11-21T07:47:07.784Z,18.13
2022-11-21T07:49:36.784Z,20.98
2022-11-21T07:52:06.045Z,15.63
2022-11-21T07:54:35.081Z,21.83
2022-11-21T07:57:04.043Z,20.63
2022-11-21T07:59:34.444Z,19.95
2022-11-21T08:02:03.629Z,16.10
2022-11-21T08:04:32.804Z,14.45
2022-11-21T08:07:02.615Z,13.40
2022-11-21T08:09:34.877Z,12.77
2022-11-21T08:12:10.492Z,14.07
2022-11-21T08:14:41.907Z,15.85
2022-11-21T08:17:11.016Z,16.63
2022-11-21T08:19:39.930Z,13.63
2022-11-21T08:22:08.921Z,15.30
2022-11-21T08:24:37.856Z,14.88
2022-11-21T08:27:06.927Z,11.25
2022-11-21T08:29:37.538Z,11.38
2022-11-21T08:32:07.925Z,15.32
2022-11-21T08:34:36.820Z,13.93
2022-11-21T08:37:06.055Z,11.40
2022-11-21T08:39:35.020Z,14.73
2022-11-21T08:42:06.573Z,9.07
2022-11-21T08:44:36.806Z,8.95
2022-11-21T08:47:07.325Z,13.27
2022-11-21T08:49:36.498Z,11.02
2022-11-21T08:52:06.044Z,8.07
2022-11-21T08:54:35.034Z,9.98
2022-11-21T08:57:04.296Z,9.23
2022-11-21T08:59:33.437Z,16.58
2022-11-21T09:02:03.329Z,9.00
2022-11-21T09:04:33.745Z,7.95
2022-11-21T09:07:04.314Z,9.85
2022-11-21T09:09:34.018Z,8.23
2022-11-21T09:12:03.544Z,8.38
2022-11-21T09:14:49.803Z,7.88
2022-11-21T09:17:36.037Z,7.70
2022-11-21T09:20:07.433Z,9.68
2022-11-21T09:22:36.317Z,10.23
2022-11-21T09:25:05.788Z,13.55
2022-11-21T09:27:36.187Z,10.75
2022-11-21T09:30:05.412Z,11.05
2022-11-21T09:32:34.675Z,13.20
2022-11-21T09:35:03.602Z,13.20
2022-11-21T09:37:38.039Z,14.75
2022-11-21T09:40:08.211Z,11.27
2022-11-21T09:43:04.574Z,10.60
2022-11-21T09:45:36.400Z,10.85
2022-11-21T09:48:12.638Z,12.32
2022-11-21T09:50:49.336Z,8.32
2022-11-21T09:53:25.541Z,13.13
2022-11-21T09:55:59.370Z,8.43
2022-11-21T09:58:33.340Z,10.07
2022-11-21T10:01:03.305Z,11.30
2022-11-21T10:03:41.888Z,9.27
2022-11-21T10:06:18.913Z,6.47
2022-11-21T10:09:00.794Z,8.70
2022-11-21T10:12:02.860Z,10.63
2022-11-21T10:14:49.537Z,8.88
2022-11-21T10:17:26.210Z,8.35
2022-11-21T10:20:10.701Z,8.90
2022-11-21T10:23:00.973Z,10.70
2022-11-21T10:25:37.544Z,7.15
2022-11-21T10:28:12.906Z,13.95
2022-11-21T10:30:46.728Z,10.00
2022-11-21T10:33:23.239Z,11.13
2022-11-21T10:35:57.102Z,10.85
2022-11-21T10:38:29.242Z,8.52
2022-11-21T10:41:05.528Z,11.10
2022-11-21T10:43:55.542Z,9.95
2022-11-21T10:46:24.567Z,10.88
2022-11-21T10:48:57.853Z,11.35
2022-11-21T10:51:38.609Z,9.65
2022-11-21T10:54:26.647Z,11.02
2022-11-21T10:57:02.475Z,10.73
2022-11-21T10:59:32.086Z,11.43
2022-11-21T11:02:02.674Z,8.13
2022-11-21T11:04:44.045Z,9.75
2022-11-21T11:07:25.673Z,7.13
2022-11-21T11:10:14.812Z,7.00
2022-11-21T11:13:08.701Z,7.90
2022-11-21T11:16:02.436Z,11.73
2022-11-21T11:18:32.776Z,8.95
2022-11-21T11:21:17.379Z,9.07
2022-11-21T11:23:47.097Z,9.03
2022-11-21T11:26:22.727Z,10.40
2022-11-21T11:28:53.308Z,10.63
2022-11-21T11:31:22.244Z,7.68
2022-11-21T11:33:53.893Z,7.60
2022-11-21T11:36:35.980Z,9.07
2022-11-21T11:39:12.697Z,9.30
2022-11-21T11:42:33.656Z,9.07
2022-11-21T11:45:34.817Z,9.38
2022-11-21T11:48:09.767Z,7.75
2022-11-21T11:50:44.987Z,8.02
2022-11-21T11:53:18.520Z,7.57
2022-11-21T11:55:53.595Z,12.68
2022-11-21T11:58:29.361Z,10.27
2022-11-21T12:01:05.118Z,9.32
2022-11-21T12:03:42.392Z,11.20
2022-11-21T12:06:17.629Z,11.38
2022-11-21T12:08:54.337Z,9.52
2022-11-21T12:11:50.121Z,8.70
2022-11-21T12:14:55.993Z,10.98
2022-11-21T12:17:33.701Z,7.43
2022-11-21T12:20:13.194Z,10.63
2022-11-21T12:22:42.750Z,8.27
2022-11-21T12:25:13.546Z,10.75
2022-11-21T12:27:43.820Z,11.23
2022-11-21T12:30:56.714Z,10.65
2022-11-21T12:33:27.185Z,11.63
2022-11-21T12:36:21.243Z,7.03
2022-11-21T12:39:20.595Z,8.85
2022-11-21T12:42:13.205Z,7.00
2022-11-21T12:44:59.078Z,11.32
2022-11-21T12:47:58.891Z,9.95
2022-11-21T12:51:05.150Z,11.02
2022-11-21T12:53:58.631Z,9.40
2022-11-21T12:56:36.502Z,8.70
2022-11-21T12:59:05.697Z,12.48
2022-11-21T13:01:43.583Z,8.70
2022-11-21T13:04:18.339Z,11.02
2022-11-21T13:06:49.753Z,7.72
2022-11-21T13:09:22.683Z,7.68
2022-11-21T13:11:59.876Z,9.38
2022-11-21T13:14:34.718Z,9.00
2022-11-21T13:17:22.201Z,12.32
2022-11-21T13:19:56.228Z,10.48
2022-11-21T13:22:54.961Z,6.80
2022-11-21T13:25:49.009Z,6.07
2022-11-21T13:28:36.160Z,9.73
2022-11-21T13:31:29.375Z,12.18
2022-11-21T13:33:58.673Z,12.52
2022-11-21T13:36:43.652Z,9.05
2022-11-21T13:39:38.161Z,7.70
2022-11-21T13:42:31.528Z,9.95
2022-11-21T13:45:16.285Z,9.45
2022-11-21T13:48:06.650Z,10.85
2022-11-21T13:51:23.049Z,6.80
2022-11-21T13:54:11.308Z,9.90
2022-11-21T13:56:56.397Z,12.00
2022-11-21T13:59:49.369Z,11.20
2022-11-21T14:02:44.774Z,10.13
2022-11-21T14:05:49.262Z,10.70
2022-11-21T14:08:21.781Z,5.32
2022-11-21T14:10:52.846Z,6.82
2022-11-21T14:13:29.286Z,13.30
2022-11-21T14:16:15.854Z,9.45
2022-11-21T14:18:47.791Z,8.30
2022-11-21T14:21:22.651Z,9.40
2022-11-21T14:23:52.077Z,10.23
2022-11-21T14:26:22.211Z,5.80
2022-11-21T14:28:53.118Z,12.82
2022-11-21T14:31:22.229Z,10.13
2022-11-21T14:33:57.376Z,9.25
2022-11-21T14:36:29.445Z,8.35
2022-11-21T14:39:34.771Z,11.30
2022-11-21T14:41:53.951Z,8.82
2022-11-21T14:44:24.643Z,6.50
2022-11-21T14:47:07.035Z,9.63
2022-11-21T14:49:36.127Z,7.82
2022-11-21T14:52:18.365Z,6.70
2022-11-21T14:55:22.243Z,7.93
2022-11-21T14:57:43.480Z,12.50
2022-11-21T15:00:43.224Z,9.70
2022-11-21T15:03:19.225Z,13.00
2022-11-21T15:06:07.357Z,8.50
2022-11-21T15:11:34.394Z,8.50
2022-11-21T15:14:16.722Z,10.38
2022-11-21T15:16:50.979Z,9.80
2022-11-21T15:19:23.029Z,9.43
2022-11-21T15:21:54.693Z,10.35
2022-11-21T15:24:42.715Z,10.57
2022-11-21T15:27:35.103Z,9.38
2022-11-21T15:30:22.116Z,10.32
2022-11-21T15:33:09.207Z,9.98
2022-11-21T15:35:50.312Z,11.80
2022-11-21T15:38:23.303Z,12.07
2022-11-21T15:41:33.428Z,14.82
2022-11-21T15:44:22.391Z,12.23
2022-11-21T15:46:54.214Z,13.30
2022-11-21T15:49:33.027Z,11.23
2022-11-21T15:52:14.385Z,9.77
2022-11-21T15:54:44.080Z,10.38
2022-11-21T15:57:16.489Z,11.02
2022-11-21T15:59:46.527Z,16.67
2022-11-21T16:02:15.828Z,11.65
2022-11-21T16:04:46.522Z,14.32
2022-11-21T16:07:15.618Z,9.02
2022-11-21T16:09:46.054Z,11.50
2022-11-21T16:12:15.023Z,12.60
2022-11-21T16:14:44.060Z,9.38
2022-11-21T16:17:13.107Z,12.07
2022-11-21T16:19:42.093Z,11.23
2022-11-21T16:22:12.673Z,17.30
2022-11-21T16:24:41.728Z,13.48
2022-11-21T16:27:10.887Z,14.27
2022-11-21T16:29:40.099Z,11.10
2022-11-21T16:32:09.223Z,10.02
2022-11-21T16:34:38.204Z,8.52
2022-11-21T16:37:07.883Z,12.82
2022-11-21T16:39:38.419Z,15.65
2022-11-21T16:42:11.760Z,10.55
2022-11-21T16:44:42.282Z,9.77
2022-11-21T16:47:11.470Z,10.90
2022-11-21T16:49:44.324Z,13.35
2022-11-21T16:52:13.464Z,10.50
2022-11-21T16:54:43.980Z,14.52
2022-11-21T16:57:13.063Z,16.10
2022-11-21T16:59:42.035Z,13.00
2022-11-21T17:02:14.393Z,14.55
2022-11-21T17:04:43.539Z,12.10
2022-11-21T17:07:12.676Z,11.15
2022-11-21T17:09:41.938Z,15.68
2022-11-21T17:12:12.484Z,11.25
2022-11-21T17:14:41.494Z,11.35
2022-11-21T17:17:10.547Z,14.32
2022-11-21T17:19:39.430Z,11.60
2022-11-21T17:22:10.868Z,16.85
2022-11-21T17:24:39.872Z,16.55
2022-11-21T17:27:08.840Z,14.60
2022-11-21T17:29:39.127Z,15.15
2022-11-21T17:32:08.125Z,14.95
2022-11-21T17:34:37.190Z,12.55
2022-11-21T17:37:06.469Z,14.02
2022-11-21T17:39:35.999Z,14.85
2022-11-21T17:42:06.098Z,14.98
2022-11-21T17:44:44.958Z,13.55
2022-11-21T17:47:16.304Z,16.17
2022-11-21T17:49:46.099Z,13.05
2022-11-21T17:52:15.265Z,13.57
2022-11-21T17:54:44.419Z,14.10
2022-11-21T17:57:13.540Z,19.30
2022-11-21T17:59:45.234Z,12.40
2022-11-21T18:02:15.277Z,20.45
2022-11-21T18:04:47.094Z,13.18
2022-11-21T18:07:17.986Z,14.35
2022-11-21T18:09:48.316Z,13.52
2022-11-21T18:12:18.123Z,22.73
2022-11-21T18:14:49.058Z,13.93
2022-11-21T18:17:18.549Z,12.93
2022-11-21T18:19:47.928Z,13.68
2022-11-21T18:22:18.442Z,11.50
2022-11-21T18:24:48.313Z,17.20
2022-11-21T18:27:21.384Z,17.08
2022-11-21T18:30:08.089Z,19.38
2022-11-21T18:32:44.060Z,16.75
2022-11-21T18:35:13.185Z,18.15
2022-11-21T18:37:43.512Z,16.15
2022-11-21T18:40:13.689Z,15.70
2022-11-21T18:42:42.842Z,14.20
2022-11-21T18:45:13.524Z,18.50
2022-11-21T18:47:42.967Z,17.88
2022-11-21T18:50:12.337Z,20.08
2022-11-21T18:52:46.463Z,13.65
2022-11-21T18:55:16.123Z,16.08
2022-11-21T18:57:45.266Z,19.17
2022-11-21T19:00:17.439Z,16.67
2022-11-21T19:02:47.931Z,23.05
2022-11-21T19:05:20.487Z,20.80
2022-11-21T19:07:50.176Z,17.13
2022-11-21T19:10:44.097Z,21.70
2022-11-21T19:13:09.413Z,17.92
2022-11-21T19:15:40.023Z,17.75
2022-11-21T19:18:09.443Z,19.40
2022-11-21T19:20:39.748Z,16.30
2022-11-21T19:23:09.390Z,18.35
2022-11-21T19:25:38.501Z,15.30
2022-11-21T19:28:07.644Z,18.02
2022-11-21T19:30:37.483Z,23.35
2022-11-21T19:33:08.006Z,13.05
2022-11-21T19:35:38.743Z,14.10
2022-11-21T19:38:08.067Z,24.10
2022-11-21T19:40:51.455Z,14.93
2022-11-21T19:43:20.667Z,17.80
2022-11-21T19:45:55.039Z,14.98
2022-11-21T19:48:28.458Z,20.65
2022-11-21T19:50:58.715Z,20.98
2022-11-21T19:53:29.055Z,16.58
2022-11-21T19:55:58.419Z,22.73
2022-11-21T19:58:27.633Z,16.67
2022-11-21T20:01:05.434Z,17.38
2022-11-21T20:03:36.607Z,18.70
2022-11-21T20:06:07.211Z,15.45
2022-11-21T20:08:36.476Z,12.13
2022-11-21T20:11:10.389Z,17.52
2022-11-21T20:13:41.074Z,18.38
2022-11-21T20:16:19.114Z,20.88
2022-11-21T20:18:50.180Z,17.60
2022-11-21T20:21:20.569Z,17.10
2022-11-21T20:23:50.828Z,18.50
2022-11-21T20:26:22.547Z,11.52
2022-11-21T20:28:52.132Z,23.38
2022-11-21T20:31:29.180Z,15.80
2022-11-21T20:34:02.384Z,13.45
2022-11-21T20:36:34.395Z,19.75
2022-11-21T20:39:05.722Z,18.92
2022-11-21T20:41:36.455Z,23.58
2022-11-21T20:46:56.385Z,17.67
2022-11-21T20:49:27.157Z,16.27
2022-11-21T20:54:45.585Z,14.98
2022-11-21T20:57:15.639Z,14.38
2022-11-21T20:59:45.371Z,19.55
2022-11-21T21:02:15.018Z,15.07
2022-11-21T21:04:45.392Z,21.17
2022-11-21T21:07:14.575Z,22.42
2022-11-21T21:09:43.558Z,19.30
2022-11-21T21:12:12.572Z,12.40
2022-11-21T21:14:41.603Z,14.48
2022-11-21T21:17:10.610Z,16.17
2022-11-21T21:19:39.669Z,17.63
2022-11-21T21:22:10.215Z,17.13
2022-11-21T21:24:39.130Z,14.82
2022-11-21T21:27:08.174Z,14.30
2022-11-21T21:29:37.238Z,15.50
2022-11-21T21:32:06.935Z,20.60
2022-11-21T21:34:35.835Z,19.65
2022-11-21T21:37:04.947Z,21.02
2022-11-21T21:39:36.692Z,14.00
2022-11-21T21:42:05.767Z,15.27
2022-11-21T21:44:34.958Z,18.20
2022-11-21T21:47:04.382Z,16.33
2022-11-21T21:49:33.335Z,16.80
2022-11-21T21:52:02.308Z,18.73
2022-11-21T21:54:31.810Z,17.35
2022-11-21T21:57:02.694Z,16.98
2022-11-21T21:59:33.048Z,22.52
2022-11-21T22:02:01.987Z,16.15
2022-11-21T22:04:33.105Z,14.05
2022-11-21T22:07:02.863Z,15.35
2022-11-21T22:09:32.082Z,16.92
2022-11-21T22:12:02.638Z,16.08
2022-11-21T22:14:31.796Z,14.13
2022-11-21T22:17:01.881Z,16.35
2022-11-21T22:19:31.047Z,14.25
2022-11-21T22:22:00.110Z,13.77
2022-11-21T22:24:29.038Z,15.32
2022-11-21T22:26:58.093Z,13.02
2022-11-21T22:29:28.520Z,10.82
2022-11-21T22:31:57.417Z,18.48
2022-11-21T22:34:26.780Z,11.50
2022-11-21T22:36:55.736Z,19.38
2022-11-21T22:39:25.208Z,14.82
2022-11-21T22:41:59.579Z,13.98
2022-11-21T22:44:30.507Z,16.65
2022-11-21T22:46:59.781Z,17.83
2022-11-21T22:49:28.735Z,17.15
2022-11-21T22:51:57.870Z,22.05
2022-11-21T22:54:27.251Z,19.77
2022-11-21T22:56:56.405Z,16.38
2022-11-21T22:59:25.273Z,23.13
2022-11-21T23:01:55.710Z,16.17
2022-11-21T23:04:24.629Z,21.25
2022-11-21T23:06:53.607Z,18.83
2022-11-21T23:09:22.519Z,18.08
2022-11-21T23:11:51.429Z,18.77
2022-11-21T23:14:20.425Z,18.10
2022-11-21T23:16:49.510Z,20.35
2022-11-21T23:19:19.832Z,16.52
2022-11-21T23:21:48.792Z,19.23
2022-11-21T23:24:18.364Z,12.95
2022-11-21T23:26:47.266Z,22.75
2022-11-21T23:29:16.136Z,20.88
2022-11-21T23:31:45.033Z,24.48
2022-11-21T23:34:14.624Z,19.73
2022-11-21T23:36:44.959Z,19.02
2022-11-21T23:39:13.923Z,20.13
2022-11-21T23:41:42.812Z,19.95
2022-11-21T23:44:11.708Z,22.67
2022-11-21T23:46:40.784Z,19.38
2022-11-21T23:49:09.661Z,22.42
2022-11-21T23:51:38.580Z,20.65
2022-11-21T23:54:08.988Z,18.25
2022-11-21T23:56:37.970Z,15.65
2022-11-21T23:59:06.833Z,19.92
